地図

経路データ

SID SEASON NUMBER BASIN SUBBASIN NAME ISO_TIME NATURE LAT LON WMO_WIND WMO_PRES WMO_AGENCY TRACK_TYPE DIST2LAND LANDFALL IFLAG USA_AGENCY USA_ATCF_ID USA_LAT USA_LON USA_RECORD USA_STATUS USA_WIND USA_PRES USA_SSHS USA_R34_NE USA_R34_SE USA_R34_SW USA_R34_NW USA_R50_NE USA_R50_SE USA_R50_SW USA_R50_NW USA_R64_NE USA_R64_SE USA_R64_SW USA_R64_NW USA_POCI USA_ROCI USA_RMW USA_EYE TOKYO_LAT TOKYO_LON TOKYO_GRADE TOKYO_WIND TOKYO_PRES TOKYO_R50_DIR TOKYO_R50_LONG TOKYO_R50_SHORT TOKYO_R30_DIR TOKYO_R30_LONG TOKYO_R30_SHORT TOKYO_LAND CMA_LAT CMA_LON CMA_CAT CMA_WIND CMA_PRES HKO_LAT HKO_LON HKO_CAT HKO_WIND HKO_PRES NEWDELHI_LAT NEWDELHI_LON NEWDELHI_GRADE NEWDELHI_WIND NEWDELHI_PRES NEWDELHI_CI NEWDELHI_DP NEWDELHI_POCI REUNION_LAT REUNION_LON REUNION_TYPE REUNION_WIND REUNION_PRES REUNION_TNUM REUNION_CI REUNION_RMW REUNION_R34_NE REUNION_R34_SE REUNION_R34_SW REUNION_R34_NW REUNION_R50_NE REUNION_R50_SE REUNION_R50_SW REUNION_R50_NW REUNION_R64_NE REUNION_R64_SE REUNION_R64_SW REUNION_R64_NW BOM_LAT BOM_LON BOM_TYPE BOM_WIND BOM_PRES BOM_TNUM BOM_CI BOM_RMW BOM_R34_NE BOM_R34_SE BOM_R34_SW BOM_R34_NW BOM_R50_NE BOM_R50_SE BOM_R50_SW BOM_R50_NW BOM_R64_NE BOM_R64_SE BOM_R64_SW BOM_R64_NW BOM_ROCI BOM_POCI BOM_EYE BOM_POS_METHOD BOM_PRES_METHOD NADI_LAT NADI_LON NADI_CAT NADI_WIND NADI_PRES WELLINGTON_LAT WELLINGTON_LON WELLINGTON_WIND WELLINGTON_PRES DS824_LAT DS824_LON DS824_STAGE DS824_WIND DS824_PRES TD9636_LAT TD9636_LON TD9636_STAGE TD9636_WIND TD9636_PRES TD9635_LAT TD9635_LON TD9635_WIND TD9635_PRES TD9635_ROCI NEUMANN_LAT NEUMANN_LON NEUMANN_CLASS NEUMANN_WIND NEUMANN_PRES MLC_LAT MLC_LON MLC_CLASS MLC_WIND MLC_PRES USA_GUST BOM_GUST BOM_GUST_PER REUNION_GUST REUNION_GUST_PER USA_SEAHGT USA_SEARAD_NE USA_SEARAD_SE USA_SEARAD_SW USA_SEARAD_NW STORM_SPEED STORM_DIR
1950305N12145 1950 103 WP MM CLARA 1950-11-01 00:00:00 TS 12.0000 144.600 main 1595 1595 __O___________ -1 12.0000 144.600 0 1010 8 270
1950305N12145 1950 103 WP MM CLARA 1950-11-01 03:00:00 TS 12.0001 144.202 main 1601 1601 __P___________ -1 12.0001 144.202 0 1009 8 270
1950305N12145 1950 103 WP MM CLARA 1950-11-01 06:00:00 TS 12.0000 143.800 main 1609 1609 __O___________ -1 12.0000 143.800 0 1008 8 270
1950305N12145 1950 103 WP MM CLARA 1950-11-01 09:00:00 TS 12.0000 143.393 main 1618 1613 __P___________ -1 12.0000 143.393 0 1008 8 270
1950305N12145 1950 103 WP MM CLARA 1950-11-01 12:00:00 TS 12.0000 143.000 main 1613 1602 __O___________ -1 12.0000 143.000 0 1008 7 270
1950305N12145 1950 103 WP MM CLARA 1950-11-01 15:00:00 TS 11.9999 142.643 main 1599 1589 __P___________ -1 11.9999 142.643 0 1007 7 270
1950305N12145 1950 103 WP MM CLARA 1950-11-01 18:00:00 TS 12.0000 142.300 main 1589 1580 __O___________ -1 12.0000 142.300 0 1006 7 270
1950305N12145 1950 103 WP MM CLARA 1950-11-01 21:00:00 TS 12.0000 141.935 main 1577 1566 __P___________ -1 12.0000 141.935 0 1006 7 270
1950305N12145 1950 103 WP MM CLARA 1950-11-02 00:00:00 TS 12.0000 141.600 main 1566 1553 __O___________ -1 12.0000 141.600 0 1006 6 270
1950305N12145 1950 103 WP MM CLARA 1950-11-02 03:00:00 TS 11.9999 141.335 main 1553 1545 __P___________ -1 11.9999 141.335 0 1005 5 270
1950305N12145 1950 103 WP MM CLARA 1950-11-02 06:00:00 TS 12.0000 141.100 main 1545 1536 __O___________ -1 12.0000 141.100 0 1004 5 270
1950305N12145 1950 103 WP MM CLARA 1950-11-02 09:00:00 TS 12.0000 140.858 main 1536 1525 __P___________ -1 12.0000 140.858 0 1004 5 270
1950305N12145 1950 103 WP MM CLARA 1950-11-02 12:00:00 TS 12.0000 140.600 main 1525 1514 __O___________ -1 12.0000 140.600 0 1004 5 270
1950305N12145 1950 103 WP MM CLARA 1950-11-02 15:00:00 TS 11.9999 140.323 main 1514 1503 __P___________ -1 11.9999 140.323 0 1004 6 270
1950305N12145 1950 103 WP MM CLARA 1950-11-02 18:00:00 TS 12.0000 140.000 main 1503 1490 __O___________ -1 12.0000 140.000 0 1004 7 270
1950305N12145 1950 103 WP MM CLARA 1950-11-02 21:00:00 TS 12.0000 139.607 main 1490 1455 __P___________ -1 12.0000 139.607 0 1004 8 270
1950305N12145 1950 103 WP MM CLARA 1950-11-03 00:00:00 TS 12.0000 139.200 main 1455 1423 __O___________ -1 12.0000 139.200 0 1004 8 271
1950305N12145 1950 103 WP MM CLARA 1950-11-03 03:00:00 TS 12.0075 138.835 main 1413 1381 __P___________ -1 12.0075 138.835 0 1004 7 270
1950305N12145 1950 103 WP MM CLARA 1950-11-03 06:00:00 TS 12.0000 138.500 main 1381 1349 __O___________ -1 12.0000 138.500 0 1004 6 265
1950305N12145 1950 103 WP MM CLARA 1950-11-03 09:00:00 TS 11.9574 138.200 main 1349 1315 __P___________ -1 11.9574 138.200 0 1003 6 260
1950305N12145 1950 103 WP MM CLARA 1950-11-03 12:00:00 TS 11.9000 137.900 main 1315 1283 __O___________ -1 11.9000 137.900 0 1002 6 262
1950305N12145 1950 103 WP MM CLARA 1950-11-03 15:00:00 TS 11.8650 137.565 main 1283 1238 __P___________ -1 11.8650 137.565 0 1001 7 262
1950305N12145 1950 103 WP MM CLARA 1950-11-03 18:00:00 TS 11.8000 137.200 main 1238 1193 __O___________ -1 11.8000 137.200 0 1000 8 255
1950305N12145 1950 103 WP MM CLARA 1950-11-03 21:00:00 TS 11.6650 136.800 main 1193 1145 __P___________ -1 11.6650 136.800 0 1000 8 249
1950305N12145 1950 103 WP MM CLARA 1950-11-04 00:00:00 TS 11.5000 136.400 main 1145 1100 __O___________ -1 11.5000 136.400 0 1000 8 247
1950305N12145 1950 103 WP MM CLARA 1950-11-04 03:00:00 TS 11.3425 136.028 main 1098 1064 __P___________ -1 11.3425 136.028 0 1000 8 246
1950305N12145 1950 103 WP MM CLARA 1950-11-04 06:00:00 TS 11.2000 135.700 main 1064 1040 __O___________ -1 11.2000 135.700 1 29 1000 6 245
1950305N12145 1950 103 WP MM CLARA 1950-11-04 09:00:00 TS 11.0774 135.450 main 1040 1006 __P___________ -1 11.0774 135.450 1 33 998 5 248
1950305N12145 1950 103 WP MM CLARA 1950-11-04 12:00:00 TS 11.0000 135.200 main 1006 974 __O___________ -1 11.0000 135.200 2 38 997 6 261
1950305N12145 1950 103 WP MM CLARA 1950-11-04 15:00:00 TS 10.9851 134.850 main 974 931 __P___________ -1 10.9851 134.850 2 38 996 7 270
1950305N12145 1950 103 WP MM CLARA 1950-11-04 18:00:00 TS 11.0000 134.500 main 931 899 __O___________ -1 11.0000 134.500 2 38 995 6 268
1950305N12145 1950 103 WP MM CLARA 1950-11-04 21:00:00 TS 10.9625 134.227 main 899 877 __P___________ -1 10.9625 134.227 2 43 992 5 270
1950305N12145 1950 103 WP MM CLARA 1950-11-05 00:00:00 TS 11.0000 134.000 main 877 859 __O___________ -1 11.0000 134.000 3 48 990 5 299
1950305N12145 1950 103 WP MM CLARA 1950-11-05 03:00:00 TS 11.2050 133.778 main 861 846 __P___________ -1 11.2050 133.778 3 53 987 6 322
1950305N12145 1950 103 WP MM CLARA 1950-11-05 06:00:00 TS 11.5000 133.600 main 849 842 __O___________ -1 11.5000 133.600 3 58 985 7 334
1950305N12145 1950 103 WP MM CLARA 1950-11-05 09:00:00 TS 11.8000 133.477 main 844 834 __P___________ -1 11.8000 133.477 3 58 985 6 342
1950305N12145 1950 103 WP MM CLARA 1950-11-05 12:00:00 TS 12.1000 133.400 main 837 837 __O___________ -1 12.1000 133.400 3 58 985 6 347
1950305N12145 1950 103 WP MM CLARA 1950-11-05 15:00:00 TS 12.3575 133.350 main 832 832 __P___________ -1 12.3575 133.350 3 63 982 5 349
1950305N12145 1950 103 WP MM CLARA 1950-11-05 18:00:00 TS 12.6000 133.300 main 836 830 __O___________ -1 12.6000 133.300 4 68 980 5 347
1950305N12145 1950 103 WP MM CLARA 1950-11-05 21:00:00 TS 12.8725 133.230 main 833 828 __P___________ -1 12.8725 133.230 4 72 975 6 341
1950305N12145 1950 103 WP MM CLARA 1950-11-06 00:00:00 TS 13.1500 133.100 main 831 810 O_O______OOO__ jtwc_wp WP161950 13.2000 133.100 75 1 13.1000 133.100 4 77 970 13.2000 133.100 TC 75 13.2000 133.100 3 75 13.2000 133.100 75 972 180 5 312
1950305N12145 1950 103 WP MM CLARA 1950-11-06 03:00:00 TS 13.2109 132.850 main 800 778 P_P______PPP__ WP161950 13.1875 132.855 77 1 13.2301 132.858 4 77 970 13.1875 132.855 TC 77 13.2427 132.818 3 77 13.1875 132.855 77 969 180 5 280
1950305N12145 1950 103 WP MM CLARA 1950-11-06 06:00:00 TS 13.2396 132.590 main 778 758 O_O______OPO__ jtwc_wp WP161950 13.2000 132.600 80 1 13.3000 132.600 4 77 970 13.2000 132.600 TC 80 13.2781 132.548 3 80 13.2000 132.600 80 966 180 5 278
1950305N12145 1950 103 WP MM CLARA 1950-11-06 09:00:00 TS 13.2814 132.352 main 758 737 P_P______PPP__ WP161950 13.2500 132.335 82 1 13.3574 132.450 4 82 967 13.2500 132.335 TC 82 13.2995 132.304 3 82 13.2500 132.335 82 963 210 4 280
1950305N12145 1950 103 WP MM CLARA 1950-11-06 12:00:00 TS 13.3200 132.140 main 726 716 O_O______OOO__ jtwc_wp WP161950 13.3000 132.100 85 2 13.4000 132.300 5 87 965 13.3000 132.100 TC 85 13.3000 132.100 4 85 13.3000 132.100 85 960 240 4 277
1950305N12145 1950 103 WP MM CLARA 1950-11-06 15:00:00 TS 13.3274 131.971 main 716 694 P_P______PPP__ WP161950 13.2999 131.950 87 2 13.4575 132.065 5 92 962 13.2999 131.950 TC 87 13.2798 131.938 4 87 13.2999 131.950 87 957 300 3 272
1950305N12145 1950 103 WP MM CLARA 1950-11-06 18:00:00 TS 13.3333 131.796 main 694 673 O_O______OPO__ jtwc_wp WP161950 13.3000 131.800 90 2 13.5000 131.800 5 97 960 13.3000 131.800 TC 90 13.2667 131.781 4 90 13.3000 131.800 90 954 360 4 273
1950305N12145 1950 103 WP MM CLARA 1950-11-06 21:00:00 TS 13.3449 131.603 main 673 643 P_P______PPP__ WP161950 13.3123 131.610 92 2 13.4922 131.602 5 101 957 13.3123 131.610 TC 92 13.2952 131.584 4 92 13.3123 131.610 92 951 360 5 280
1950305N12145 1950 103 WP MM CLARA 1950-11-07 00:00:00 TS 13.4200 131.300 main 643 595 O_O______OOO__ jtwc_wp WP161950 13.4000 131.300 95 2 13.5000 131.300 6 106 955 13.4000 131.300 TC 95 13.4000 131.300 4 95 13.4000 131.300 95 948 360 8 288
1950305N12145 1950 103 WP MM CLARA 1950-11-07 03:00:00 TS 13.5968 130.794 main 595 540 P_P______PPP__ WP161950 13.6052 130.788 97 3 13.5552 130.752 6 111 952 13.6052 130.788 TC 97 13.6135 130.853 4 97 13.6052 130.788 97 944 360 12 292
1950305N12145 1950 103 WP MM CLARA 1950-11-07 06:00:00 TS 13.8607 130.204 main 543 502 O_O______OPO__ jtwc_wp WP161950 13.9000 130.200 100 3 13.7000 130.100 6 116 950 13.9000 130.200 TC 100 13.9034 130.318 4 100 13.9000 130.200 100 941 360 13 298
1950305N12145 1950 103 WP MM CLARA 1950-11-07 09:00:00 TS 14.1803 129.656 main 507 476 P_P______PPP__ WP161950 14.2349 129.685 102 3 13.9550 129.478 6 116 947 14.2349 129.685 TC 102 14.2416 129.749 4 102 14.2349 129.685 102 938 360 12 303
1950305N12145 1950 103 WP MM CLARA 1950-11-07 12:00:00 TS 14.5400 129.140 main 467 452 O_O______OOO__ jtwc_wp WP161950 14.6000 129.200 105 3 14.3000 128.900 6 116 945 14.6000 129.200 TC 105 14.6000 129.200 4 105 14.6000 129.200 105 935 360 12 307
1950305N12145 1950 103 WP MM CLARA 1950-11-07 15:00:00 TS 14.8972 128.668 main 459 444 P_P______PPP__ WP161950 14.9499 128.735 110 3 14.6848 128.412 6 121 942 14.9499 128.735 TC 110 14.9516 128.722 4 110 14.9499 128.735 110 932 480 11 310
1950305N12145 1950 103 WP MM CLARA 1950-11-07 18:00:00 TS 15.2629 128.235 main 438 412 O_O______OPO__ jtwc_wp WP161950 15.3000 128.300 115 4 15.1000 128.000 6 126 940 15.3000 128.300 TC 115 15.3147 128.275 4 115 15.3000 128.300 115 929 600 11 312
1950305N12145 1950 103 WP MM CLARA 1950-11-07 21:00:00 TS 15.6301 127.815 main 412 401 P_P______PPP__ WP161950 15.6650 127.870 120 4 15.4850 127.597 6 126 940 15.6650 127.870 TC 120 15.6705 127.866 4 120 15.6650 127.870 120 926 570 10 314
1950305N12145 1950 103 WP MM CLARA 1950-11-08 00:00:00 TS 15.9800 127.460 main 407 395 O_O______OOO__ jtwc_wp WP161950 16.0000 127.500 125 4 15.9000 127.300 6 126 940 16.0000 127.500 TC 125 16.0000 127.500 4 125 16.0000 127.500 125 923 540 9 319
1950305N12145 1950 103 WP MM CLARA 1950-11-08 03:00:00 TS 16.2936 127.211 main 403 402 P_P______PPP__ WP161950 16.2648 127.235 125 4 16.4074 127.170 6 126 940 16.2648 127.235 TC 125 16.2661 127.181 4 125 16.2648 127.235 125 920 510 7 324
1950305N12145 1950 103 WP MM CLARA 1950-11-08 06:00:00 TS 16.5814 127.001 main 410 403 O_O______OPO__ jtwc_wp WP161950 16.5000 127.000 125 4 16.9000 127.100 6 126 940 16.5000 127.000 TC 125 16.5069 126.904 4 125 16.5000 127.000 125 918 480 7 321
1950305N12145 1950 103 WP MM CLARA 1950-11-08 09:00:00 TS 16.8519 126.740 main 414 410 P_P______PPP__ WP161950 16.7425 126.692 125 4 17.2875 126.972 6 126 940 16.7425 126.692 TC 125 16.7443 126.650 4 125 16.7425 126.692 125 915 420 7 317
1950305N12145 1950 103 WP MM CLARA 1950-11-08 12:00:00 TS 17.1200 126.480 main 419 405 O_O______OOO__ jtwc_wp WP161950 17.0000 126.400 125 4 17.6000 126.800 6 126 940 17.0000 126.400 TC 125 17.0000 126.400 4 125 17.0000 126.400 125 913 360 7 321
1950305N12145 1950 103 WP MM CLARA 1950-11-08 15:00:00 TS 17.4046 126.265 main 406 379 P_P______PPP__ WP161950 17.2848 126.207 122 4 17.8649 126.580 6 121 940 17.2848 126.207 TC 122 17.3033 126.125 4 121 17.2848 126.207 122 910 330 7 324
1950305N12145 1950 103 WP MM CLARA 1950-11-08 18:00:00 TS 17.7055 126.030 main 379 357 O_O______OPO__ jtwc_wp WP161950 17.6000 126.000 120 4 18.1000 126.300 6 116 940 17.6000 126.000 TC 120 17.6274 125.850 4 117 17.6000 126.000 120 908 300 8 319
1950305N12145 1950 103 WP MM CLARA 1950-11-08 21:00:00 TS 18.0296 125.701 main 357 327 P_P______PPP__ WP161950 17.9426 125.658 115 4 18.3575 125.958 6 116 940 17.9426 125.658 TC 115 17.9627 125.575 4 113 17.9426 125.658 115 905 330 9 316
1950305N12145 1950 103 WP MM CLARA 1950-11-09 00:00:00 TS 18.3600 125.360 main 327 296 O_O______OOO__ jtwc_wp WP161950 18.3000 125.300 110 3 18.6000 125.600 6 116 940 18.3000 125.300 TC 110 18.3000 125.300 4 110 18.3000 125.300 110 903 360 9 318
1950305N12145 1950 103 WP MM CLARA 1950-11-09 03:00:00 TS 18.6740 125.085 main 297 271 P_P______PPP__ WP161950 18.6574 125.042 105 3 18.7849 125.300 6 116 940 18.6574 125.042 TC 105 18.6129 124.997 4 107 18.6574 125.042 105 901 390 8 321
1950305N12145 1950 103 WP MM CLARA 1950-11-09 06:00:00 TS 18.9855 124.820 main 271 252 O_O______OPO__ jtwc_wp WP161950 19.0000 124.800 100 3 19.0000 125.000 6 116 940 19.0000 124.800 TC 100 18.9277 124.698 4 105 19.0000 124.800 100 899 420 8 319
1950305N12145 1950 103 WP MM CLARA 1950-11-09 09:00:00 TS 19.3008 124.499 main 252 240 P_P______PPP__ WP161950 19.3076 124.478 100 3 19.3276 124.635 6 111 940 19.3076 124.478 TC 100 19.2536 124.425 4 102 19.3076 124.478 100 911 420 9 318
1950305N12145 1950 103 WP MM CLARA 1950-11-09 12:00:00 TS 19.6200 124.220 main 240 238 O_O______OOO__ jtwc_wp WP161950 19.6000 124.200 100 3 19.7000 124.300 6 106 940 19.6000 124.200 TC 100 19.6000 124.200 4 100 19.6000 124.200 100 923 420 8 326
1950305N12145 1950 103 WP MM CLARA 1950-11-09 15:00:00 TS 19.9197 124.054 main 252 245 P_P______PPP__ WP161950 19.8699 124.070 100 3 20.0349 124.055 6 106 942 19.8699 124.070 TC 100 19.9539 124.005 4 100 19.8699 124.070 100 936 390 7 339
1950305N12145 1950 103 WP MM CLARA 1950-11-09 18:00:00 TS 20.2664 123.953 main 277 270 O_O______OPO__ jtwc_wp WP161950 20.2000 124.000 100 3 20.4000 123.900 6 106 945 20.2000 124.000 TC 100 20.3322 123.866 4 100 20.2000 124.000 100 949 360 8 347
1950305N12145 1950 103 WP MM CLARA 1950-11-09 21:00:00 TS 20.7269 123.849 main 301 301 P_P______PPP__ WP161950 20.6850 123.878 100 3 20.8350 123.820 6 106 945 20.6850 123.878 TC 100 20.7445 123.793 4 100 20.6850 123.878 100 959 360 10 351
1950305N12145 1950 103 WP MM CLARA 1950-11-10 00:00:00 TS 21.2200 123.800 main 309 298 O_O______OOO__ jtwc_wp WP161950 21.2000 123.800 100 3 21.3000 123.800 6 106 945 21.2000 123.800 TC 100 21.2000 123.800 4 100 21.2000 123.800 100 969 360 9 356
1950305N12145 1950 103 WP MM CLARA 1950-11-10 03:00:00 TS 21.6264 123.795 main 298 279 P_P______PPP__ WP161950 21.5699 123.790 100 3 21.7199 123.755 6 106 945 21.5699 123.790 TC 100 21.7024 123.848 4 100 21.5699 123.790 100 968 360 9 6
1950305N12145 1950 103 WP MM CLARA 1950-11-10 06:00:00 TS 22.0894 123.896 main 279 271 O_O______OPO__ jtwc_wp WP161950 22.0000 123.900 100 3 22.2000 123.800 6 106 945 22.0000 123.900 TC 100 22.2468 123.979 4 100 22.0000 123.900 100 968 360 12 15
1950305N12145 1950 103 WP MM CLARA 1950-11-10 09:00:00 TS 22.7356 124.127 main 280 278 P_P______PPP__ WP161950 22.6775 124.147 100 3 22.8275 123.997 6 101 947 22.6775 124.147 TC 100 22.8178 124.195 4 100 22.6775 124.147 100 967 330 14 21
1950305N12145 1950 103 WP MM CLARA 1950-11-10 12:00:00 TS 23.4200 124.460 main 291 282 O_O______OOO__ jtwc_wp WP161950 23.4000 124.500 100 3 23.5000 124.300 5 97 950 23.4000 124.500 TC 100 23.4000 124.500 4 100 23.4000 124.500 100 966 300 14 26
1950305N12145 1950 103 WP MM CLARA 1950-11-10 15:00:00 TS 23.9960 124.812 main 299 299 P_P______PPP__ WP161950 23.9648 124.863 95 2 24.1224 124.620 5 97 950 23.9648 124.863 TC 95 23.9633 124.849 4 96 23.9648 124.863 95 965 300 13 32
1950305N12145 1950 103 WP MM CLARA 1950-11-10 18:00:00 TS 24.5468 125.237 main 327 327 O_O______OPO__ jtwc_wp WP161950 24.5000 125.300 90 2 24.7000 125.000 5 97 950 24.5000 125.300 TC 90 24.5341 125.287 4 92 24.5000 125.300 90 964 300 14 37
1950305N12145 1950 103 WP MM CLARA 1950-11-10 21:00:00 TS 25.1406 125.745 main 372 372 P_P______PPP__ WP161950 25.1227 125.842 87 2 25.2220 125.391 5 87 955 25.1227 125.842 TC 87 25.1129 125.806 4 88 25.1227 125.842 87 963 270 15 40
1950305N12145 1950 103 WP MM CLARA 1950-11-11 00:00:00 TS 25.7000 126.300 main 438 438 O_O______OOO__ jtwc_wp WP161950 25.7000 126.400 85 2 25.7000 125.900 4 77 960 25.7000 126.400 TC 85 25.7000 126.400 4 85 25.7000 126.400 85 963 240 14 43
1950305N12145 1950 103 WP MM CLARA 1950-11-11 03:00:00 TS 26.1343 126.777 main 496 496 P_P______PPP__ WP161950 26.0686 126.786 82 1 26.1268 126.554 4 77 960 26.0686 126.786 TC 82 26.3387 126.976 4 82 26.0686 126.786 82 962 240 13 47
1950305N12145 1950 103 WP MM CLARA 1950-11-11 06:00:00 TS 26.6155 127.387 main 568 476 O_O______OPO__ jtwc_wp WP161950 26.5000 127.300 80 1 26.6000 127.400 4 77 960 26.5000 127.300 TC 80 26.9776 127.633 4 80 26.5000 127.300 80 961 240 18 48
1950305N12145 1950 103 WP MM CLARA 1950-11-11 09:00:00 TS 27.3415 128.296 main 472 361 P_P______PPP__ WP161950 27.2929 128.200 77 1 27.2511 128.483 4 72 965 27.2929 128.200 TC 77 27.5779 128.398 4 77 27.2929 128.200 77 965 240 23 51
1950305N12145 1950 103 WP MM CLARA 1950-11-11 12:00:00 TS 28.0600 129.360 main 347 270 O_O______OOO__ jtwc_wp WP161950 28.1000 129.300 75 1 27.9000 129.600 4 68 970 28.1000 129.300 TC 75 28.1000 129.300 4 75 28.1000 129.300 75 970 240 22 56
1950305N12145 1950 103 WP MM CLARA 1950-11-11 15:00:00 TS 28.5788 130.383 main 269 239 P_P______PPP__ WP161950 28.6461 130.356 72 1 28.4004 130.452 4 68 970 28.6461 130.356 TC 72 28.5550 130.398 4 73 28.6461 130.356 72 975 240 21 65
1950305N12145 1950 103 WP MM CLARA 1950-11-11 18:00:00 TS 28.9431 131.484 main 246 239 O_O______OPO__ jtwc_wp WP161950 29.0000 131.500 70 1 28.8000 131.300 4 68 970 29.0000 131.500 TC 70 28.9154 131.621 4 72 29.0000 131.500 70 981 240 22 73
1950305N12145 1950 103 WP MM CLARA 1950-11-11 21:00:00 TS 29.2144 132.738 main 275 275 P_P______PPP__ WP161950 29.2409 132.823 70 1 29.1818 132.339 4 68 970 29.2409 132.823 TC 70 29.1673 132.885 4 71 29.2409 132.823 70 986 240 22 80
1950305N12145 1950 103 WP MM CLARA 1950-11-12 00:00:00 TS 29.3200 133.980 main 341 341 O_O______OOO__ jtwc_wp WP161950 29.3000 134.100 70 1 29.4000 133.500 4 68 970 29.3000 134.100 TC 70 29.3000 134.100 4 70 29.3000 134.100 70 991 240 20 89
1950305N12145 1950 103 WP MM CLARA 1950-11-12 03:00:00 TS 29.2339 135.025 main 423 423 P_P______PPP__ WP161950 29.1779 135.096 67 1 29.3585 134.699 4 63 975 29.1779 135.096 TC 67 29.2771 135.135 4 67 29.1779 135.096 67 994 210 18 98
1950305N12145 1950 103 WP MM CLARA 1950-11-12 06:00:00 TS 29.0706 136.021 main 480 480 O_O______OPO__ jtwc_wp WP161950 29.0000 136.000 65 1 29.2000 136.000 3 58 980 29.0000 136.000 TC 65 29.1529 136.105 4 65 29.0000 136.000 65 997 180 18 98
1950305N12145 1950 103 WP MM CLARA 1950-11-12 09:00:00 TS 28.9693 137.096 main 506 506 P_P______PPP__ WP161950 28.9194 136.992 62 0 29.0855 137.458 3 58 982 28.9194 136.992 TC 62 29.0026 137.047 4 62 28.9194 136.992 62 998 180 19 95
1950305N12145 1950 103 WP MM CLARA 1950-11-12 12:00:00 TS 28.9200 138.180 main 551 551 O_O______OOO__ jtwc_wp WP161950 28.9000 138.000 60 0 29.0000 138.900 3 58 985 28.9000 138.000 TC 60 28.9000 138.000 2 60 28.9000 138.000 60 999 180 19 91
1950305N12145 1950 103 WP MM CLARA 1950-11-12 15:00:00 TS 28.9282 139.224 main 596 596 P_P______PPP__ WP161950 28.9189 138.985 57 0 28.9836 140.167 3 58 985 28.9189 138.985 TC 57 28.9007 138.998 2 57 28.9189 138.985 57 1000 180 19 88
1950305N12145 1950 103 WP MM CLARA 1950-11-12 18:00:00 TS 28.9982 140.295 main 640 639 O_O______OPO__ jtwc_wp WP161950 29.0000 140.000 55 0 29.0000 141.300 3 58 985 29.0000 140.000 TC 55 28.9893 140.039 2 55 29.0000 140.000 55 1001 180 19 83
1950305N12145 1950 103 WP MM CLARA 1950-11-12 21:00:00 TS 29.1525 141.372 main 650 650 P_P______PPP__ WP161950 29.2382 141.036 52 0 28.9984 142.322 3 53 987 29.2382 141.036 TC 52 29.1332 141.111 2 52 29.1371 141.079 52 1002 150 19 84
1950305N12145 1950 103 WP MM CLARA 1950-11-13 00:00:00 MX 29.2143 142.514 main 681 681 O_O______OOO__ jtwc_wp WP161950 29.3000 142.200 50 0 29.0000 143.300 9 48 990 29.3000 142.200 TC 50 29.3000 142.200 2 50 29.3000 142.200 50 1003 120 22 98
1950305N12145 1950 103 WP MM CLARA 1950-11-13 03:00:00 MX 28.8593 143.866 main 767 767 P_P______P____ WP161950 28.7890 143.621 45 0 28.9997 144.357 9 990 28.7890 143.621 TC 45 2 24 108
1950305N12145 1950 103 WP MM CLARA 1950-11-13 06:00:00 MX 28.4667 145.133 main 866 866 O_O______O____ jtwc_wp WP161950 28.2000 145.000 40 0 29.0000 145.400 9 990 28.2000 145.000 TC 40 2 20 106
1950305N12145 1950 103 WP MM CLARA 1950-11-13 09:00:00 MX 28.2915 146.100 main 938 938 P_P______P____ WP161950 27.9374 145.948 37 0 28.9997 146.402 9 990 27.9374 145.948 TC 37 2 17 92
1950305N12145 1950 103 WP MM CLARA 1950-11-13 12:00:00 MX 28.4000 147.120 main 986 986 O_O______O____ jtwc_wp WP161950 28.0000 147.000 35 0 29.0000 147.300 9 990 28.0000 147.000 TC 35 20 78
1950305N12145 1950 103 WP MM CLARA 1950-11-13 15:00:00 MX 28.7051 148.309 main 1038 1038 P_P______P____ WP161950 28.4111 148.574 32 -1 28.9991 148.045 9 990 28.4111 148.574 TC 32 20 73
1950305N12145 1950 103 WP MM CLARA 1950-11-13 18:00:00 MX 29.0000 149.300 main 1084 1084 O_O______O____ jtwc_wp WP161950 29.0000 150.500 30 -1 29.0000 148.700 9 990 29.0000 150.500 TC 30 10 72
1950305N12145 1950 103 WP MM CLARA 1950-11-13 21:00:00 ET 28.9994 149.342 main 1084 1084 __P___________ WP161950 -1 28.9994 149.342 9 990 TC 6 90
1950305N12145 1950 103 WP MM CLARA 1950-11-14 00:00:00 ET 29.0000 150.000 main 1133 1133 __O___________ -1 29.0000 150.000 9 990 12 90
1950305N12145 1950 103 WP MM CLARA 1950-11-14 03:00:00 ET 28.9996 150.720 main 1183 1183 __P___________ -1 28.9996 150.720 9 990 13 90
1950305N12145 1950 103 WP MM CLARA 1950-11-14 06:00:00 ET 29.0000 151.500 main 1242 1242 __O___________ -1 29.0000 151.500 9 990 14 90
1950305N12145 1950 103 WP MM CLARA 1950-11-14 09:00:00 ET 28.9926 152.358 main 1310 1310 __P___________ -1 28.9926 152.358 9 990 15 90
1950305N12145 1950 103 WP MM CLARA 1950-11-14 12:00:00 ET 29.0000 153.200 main 1372 1372 __O___________ -1 29.0000 153.200 9 990 14 88
1950305N12145 1950 103 WP MM CLARA 1950-11-14 15:00:00 ET 29.0419 153.930 main 1427 1427 __P___________ -1 29.0419 153.930 9 990 12 85
1950305N12145 1950 103 WP MM CLARA 1950-11-14 18:00:00 ET 29.1000 154.600 main 1477 1477 __O___________ -1 29.1000 154.600 9 990 12 85
1950305N12145 1950 103 WP MM CLARA 1950-11-14 21:00:00 ET 29.1345 155.250 main 1534 1534 __P___________ -1 29.1345 155.250 9 992 11 85
1950305N12145 1950 103 WP MM CLARA 1950-11-15 00:00:00 ET 29.2000 155.900 main 1578 1578 __O___________ -1 29.2000 155.900 9 995 12 82
1950305N12145 1950 103 WP MM CLARA 1950-11-15 03:00:00 ET 29.2970 156.578 main 1631 1631 __P___________ -1 29.2970 156.578 9 997 13 76
1950305N12145 1950 103 WP MM CLARA 1950-11-15 06:00:00 ET 29.5000 157.300 main 1679 1679 __O___________ -1 29.5000 157.300 9 1000 15 68
1950305N12145 1950 103 WP MM CLARA 1950-11-15 09:00:00 ET 29.8480 158.129 main 1732 1732 __P___________ -1 29.8480 158.129 9 1002 16 60
1950305N12145 1950 103 WP MM CLARA 1950-11-15 12:00:00 ET 30.3000 158.900 main 1777 1777 __O___________ -1 30.3000 158.900 9 1005 15 51
1950305N12145 1950 103 WP MM CLARA 1950-11-15 15:00:00 ET 30.7922 159.465 main 1807 1803 __P___________ -1 30.7922 159.465 9 1007 13 41
1950305N12145 1950 103 WP MM CLARA 1950-11-15 18:00:00 ET 31.3000 159.900 main 1818 __O___________ -1 31.3000 159.900 9 1010 13 36

デジタル台風データ・検索

IBTrACS Databaseについて

本データベースは、米国NOAAが公開する1842年以降の世界の熱帯低気圧のベストトラックデータアーカイブInternational Best Track Archive for Climate Stewardship (IBTrACS)を、ウェブで閲覧しやすい形式に変換したものです。

最終更新日:2021-10-27